createdAt,value
2022-08-28T00:00:20.357Z,2.72
2022-08-28T00:02:24.418Z,3.40
2022-08-28T00:04:26.536Z,2.95
2022-08-28T00:06:28.841Z,2.70
2022-08-28T00:08:31.790Z,3.60
2022-08-28T00:10:33.990Z,3.10
2022-08-28T00:12:37.300Z,3.28
2022-08-28T00:14:39.943Z,3.27
2022-08-28T00:16:42.210Z,2.83
2022-08-28T00:18:45.476Z,4.03
2022-08-28T00:20:49.792Z,2.67
2022-08-28T00:22:54.728Z,2.97
2022-08-28T00:24:56.625Z,3.30
2022-08-28T00:27:17.196Z,2.92
2022-08-28T00:29:20.681Z,3.25
2022-08-28T00:31:22.714Z,2.97
2022-08-28T00:33:31.123Z,3.40
2022-08-28T00:35:34.109Z,3.35
2022-08-28T00:37:36.345Z,3.25
2022-08-28T00:39:38.479Z,2.83
2022-08-28T00:41:42.647Z,3.67
2022-08-28T00:43:47.799Z,3.30
2022-08-28T00:45:49.762Z,2.85
2022-08-28T00:47:51.702Z,3.22
2022-08-28T00:49:55.735Z,3.45
2022-08-28T00:52:12.475Z,2.80
2022-08-28T00:54:17.822Z,3.15
2022-08-28T00:56:20.570Z,3.28
2022-08-28T00:58:22.635Z,3.80
2022-08-28T01:00:32.484Z,3.10
2022-08-28T01:02:34.532Z,3.35
2022-08-28T01:04:36.989Z,3.08
2022-08-28T01:06:39.475Z,3.10
2022-08-28T01:08:45.932Z,3.20
2022-08-28T01:10:55.290Z,3.25
2022-08-28T01:12:58.401Z,3.10
2022-08-28T01:15:04.669Z,3.40
2022-08-28T01:17:08.525Z,3.40
2022-08-28T01:19:18.323Z,3.42
2022-08-28T01:21:23.877Z,3.08
2022-08-28T01:23:51.859Z,3.10
2022-08-28T01:25:54.208Z,3.28
2022-08-28T01:27:56.467Z,3.00
2022-08-28T01:29:58.418Z,3.10
2022-08-28T01:32:00.359Z,3.00
2022-08-28T01:34:03.073Z,3.25
2022-08-28T01:36:05.206Z,2.78
2022-08-28T01:38:07.138Z,2.75
2022-08-28T01:40:13.965Z,3.90
2022-08-28T01:42:16.276Z,3.03
2022-08-28T01:44:24.844Z,3.88
2022-08-28T01:46:26.922Z,2.70
2022-08-28T01:48:31.507Z,2.78
2022-08-28T01:50:34.902Z,3.30
2022-08-28T01:52:37.099Z,2.70
2022-08-28T01:54:42.196Z,3.85
2022-08-28T01:56:44.481Z,2.75
2022-08-28T01:58:48.293Z,2.75
2022-08-28T02:00:51.112Z,3.00
2022-08-28T02:02:56.089Z,2.80
2022-08-28T02:04:58.272Z,3.00
2022-08-28T02:07:00.282Z,2.90
2022-08-28T02:09:02.299Z,3.40
2022-08-28T02:11:06.468Z,3.00
2022-08-28T02:15:11.019Z,3.00
2022-08-28T02:17:12.945Z,2.90
2022-08-28T02:19:14.942Z,2.80
2022-08-28T02:21:17.310Z,3.20
2022-08-28T02:23:19.525Z,2.90
2022-08-28T02:25:22.404Z,3.08
2022-08-28T02:27:24.332Z,3.13
2022-08-28T02:29:27.319Z,3.17
2022-08-28T02:31:29.281Z,2.80
2022-08-28T02:33:31.385Z,2.95
2022-08-28T02:35:33.438Z,2.72
2022-08-28T02:37:35.853Z,3.00
2022-08-28T02:39:37.849Z,3.00
2022-08-28T02:41:40.263Z,2.80
2022-08-28T02:43:42.192Z,2.95
2022-08-28T02:45:44.099Z,2.70
2022-08-28T02:47:47.110Z,2.60
2022-08-28T02:49:49.065Z,2.95
2022-08-28T02:51:51.441Z,2.72
2022-08-28T02:53:53.445Z,3.25
2022-08-28T02:55:56.475Z,2.90
2022-08-28T02:57:58.401Z,2.78
2022-08-28T03:00:00.326Z,3.17
2022-08-28T03:02:04.176Z,3.58
2022-08-28T03:04:06.256Z,3.17
2022-08-28T03:06:09.797Z,2.83
2022-08-28T03:08:19.717Z,2.92
2022-08-28T03:10:25.253Z,2.42
2022-08-28T03:12:27.490Z,2.70
2022-08-28T03:14:29.540Z,2.70
2022-08-28T03:16:34.171Z,2.50
2022-08-28T03:18:36.205Z,3.03
2022-08-28T03:20:38.241Z,2.60
2022-08-28T03:23:00.561Z,2.55
2022-08-28T03:25:02.504Z,2.75
2022-08-28T03:27:05.221Z,2.70
2022-08-28T03:29:07.274Z,2.80
2022-08-28T03:31:11.806Z,2.33
2022-08-28T03:33:14.608Z,2.72
2022-08-28T03:35:16.725Z,2.53
2022-08-28T03:37:18.710Z,2.50
2022-08-28T03:39:20.711Z,2.75
2022-08-28T03:41:24.794Z,2.78
2022-08-28T03:43:27.438Z,2.65
2022-08-28T03:45:29.425Z,2.70
2022-08-28T03:47:31.405Z,2.70
2022-08-28T03:49:33.294Z,3.33
2022-08-28T03:51:35.562Z,2.67
2022-08-28T03:53:37.926Z,2.50
2022-08-28T03:55:43.340Z,2.70
2022-08-28T03:57:46.173Z,2.65
2022-08-28T03:59:49.860Z,2.70
2022-08-28T04:01:52.470Z,3.65
2022-08-28T04:03:54.476Z,2.45
2022-08-28T04:05:56.888Z,2.40
2022-08-28T04:07:59.005Z,3.05
2022-08-28T04:10:01.055Z,2.35
2022-08-28T04:12:03.567Z,2.85
2022-08-28T04:14:05.534Z,2.95
2022-08-28T04:16:10.946Z,2.58
2022-08-28T04:18:13.397Z,2.45
2022-08-28T04:20:15.584Z,2.50
2022-08-28T04:22:17.524Z,3.05
2022-08-28T04:24:20.914Z,3.03
2022-08-28T04:26:25.389Z,2.45
2022-08-28T04:28:27.477Z,2.67
2022-08-28T04:30:29.485Z,2.78
2022-08-28T04:32:33.566Z,2.70
2022-08-28T04:34:38.207Z,2.78
2022-08-28T04:36:40.125Z,2.10
2022-08-28T04:38:44.100Z,2.90
2022-08-28T04:42:48.366Z,3.13
2022-08-28T04:44:50.482Z,2.60
2022-08-28T04:46:52.381Z,2.88
2022-08-28T04:48:55.873Z,2.58
2022-08-28T04:50:58.422Z,2.65
2022-08-28T04:53:00.398Z,2.67
2022-08-28T04:55:02.485Z,2.47
2022-08-28T04:57:06.404Z,2.65
2022-08-28T04:59:10.085Z,2.50
2022-08-28T05:01:18.979Z,2.92
2022-08-28T05:03:21.347Z,2.90
2022-08-28T05:05:23.653Z,2.70
2022-08-28T05:07:25.774Z,2.60
2022-08-28T05:09:27.730Z,2.42
2022-08-28T05:11:34.579Z,2.97
2022-08-28T05:13:37.827Z,2.47
2022-08-28T05:15:40.832Z,2.65
2022-08-28T05:17:42.817Z,2.80
2022-08-28T05:19:44.825Z,2.65
2022-08-28T05:21:48.031Z,2.75
2022-08-28T05:23:53.568Z,2.27
2022-08-28T05:25:55.889Z,2.28
2022-08-28T05:27:58.072Z,2.40
2022-08-28T05:30:02.064Z,2.33
2022-08-28T05:34:07.468Z,2.50
2022-08-28T05:36:10.428Z,2.40
2022-08-28T05:38:15.261Z,2.42
2022-08-28T05:40:18.766Z,2.50
2022-08-28T05:42:20.753Z,2.33
2022-08-28T05:44:22.820Z,2.42
2022-08-28T05:46:25.502Z,2.25
2022-08-28T05:48:30.448Z,2.13
2022-08-28T05:50:39.230Z,2.28
2022-08-28T05:52:49.504Z,2.13
2022-08-28T05:54:51.822Z,2.50
2022-08-28T05:56:53.832Z,2.20
2022-08-28T05:59:00.032Z,2.50
2022-08-28T06:01:28.866Z,2.78
2022-08-28T06:03:30.820Z,2.45
2022-08-28T06:05:32.776Z,2.25
2022-08-28T06:07:35.096Z,2.20
2022-08-28T06:09:38.402Z,2.42
2022-08-28T06:11:44.666Z,2.50
2022-08-28T06:13:48.191Z,2.75
2022-08-28T06:15:50.184Z,2.88
2022-08-28T06:17:52.828Z,2.33
2022-08-28T06:19:54.933Z,2.30
2022-08-28T06:22:00.329Z,3.42
2022-08-28T06:24:02.383Z,2.30
2022-08-28T06:26:06.099Z,2.42
2022-08-28T06:28:08.331Z,2.60
2022-08-28T06:30:11.520Z,2.15
2022-08-28T06:32:13.560Z,2.85
2022-08-28T06:34:15.579Z,2.42
2022-08-28T06:36:17.480Z,2.35
2022-08-28T06:38:21.083Z,2.10
2022-08-28T06:40:23.040Z,2.22
2022-08-28T06:42:25.306Z,2.25
2022-08-28T06:44:27.476Z,2.33
2022-08-28T06:46:30.577Z,2.65
2022-08-28T06:48:35.274Z,2.90
2022-08-28T06:50:45.549Z,2.53
2022-08-28T06:52:47.850Z,3.65
2022-08-28T06:54:55.453Z,2.40
2022-08-28T06:56:57.724Z,2.97
2022-08-28T06:59:00.202Z,2.20
2022-08-28T07:01:10.691Z,2.15
2022-08-28T07:03:14.143Z,2.30
2022-08-28T07:05:19.657Z,2.83
2022-08-28T07:07:31.672Z,2.40
2022-08-28T07:09:34.666Z,2.55
2022-08-28T07:11:37.752Z,2.20
2022-08-28T07:13:41.455Z,2.28
2022-08-28T07:15:43.386Z,2.50
2022-08-28T07:17:46.020Z,2.50
2022-08-28T07:19:48.001Z,2.28
2022-08-28T07:21:49.931Z,2.40
2022-08-28T07:23:52.050Z,2.30
2022-08-28T07:25:54.585Z,2.58
2022-08-28T07:27:57.211Z,2.28
2022-08-28T07:29:59.228Z,2.50
2022-08-28T07:32:03.468Z,2.55
2022-08-28T07:34:05.578Z,2.25
2022-08-28T07:36:15.768Z,2.13
2022-08-28T07:38:21.740Z,2.40
2022-08-28T07:40:23.814Z,2.38
2022-08-28T07:42:44.620Z,2.25
2022-08-28T07:44:49.840Z,2.45
2022-08-28T07:46:56.607Z,2.28
2022-08-28T07:48:59.686Z,2.30
2022-08-28T07:51:02.865Z,2.47
2022-08-28T07:53:04.842Z,2.90
2022-08-28T07:55:08.827Z,2.60
2022-08-28T07:57:10.780Z,2.45
2022-08-28T07:59:16.639Z,2.20
2022-08-28T08:01:19.968Z,2.42
2022-08-28T08:03:22.978Z,2.72
2022-08-28T08:05:25.703Z,2.90
2022-08-28T08:07:28.769Z,2.33
2022-08-28T08:09:30.684Z,2.67
2022-08-28T08:11:33.491Z,2.30
2022-08-28T08:13:36.218Z,2.50
2022-08-28T08:15:38.301Z,2.42
2022-08-28T08:17:40.442Z,2.88
2022-08-28T08:19:42.416Z,2.53
2022-08-28T08:21:48.380Z,2.70
2022-08-28T08:23:56.195Z,2.53
2022-08-28T08:26:00.086Z,2.90
2022-08-28T08:28:03.996Z,2.50
2022-08-28T08:30:06.414Z,2.40
2022-08-28T08:32:11.047Z,2.35
2022-08-28T08:34:13.176Z,2.25
2022-08-28T08:36:17.838Z,2.60
2022-08-28T08:38:19.717Z,2.75
2022-08-28T08:40:21.840Z,2.33
2022-08-28T08:42:25.768Z,2.28
2022-08-28T08:44:36.673Z,2.17
2022-08-28T08:47:03.729Z,2.60
2022-08-28T08:49:14.961Z,2.75
2022-08-28T08:51:39.530Z,2.50
2022-08-28T08:53:53.350Z,2.25
2022-08-28T08:55:57.617Z,2.75
2022-08-28T08:58:15.804Z,3.83
2022-08-28T09:00:19.289Z,2.42
2022-08-28T09:02:31.718Z,2.53
2022-08-28T09:04:40.210Z,2.20
2022-08-28T09:06:56.513Z,2.40
2022-08-28T09:09:02.006Z,2.55
2022-08-28T09:11:36.312Z,2.60
2022-08-28T09:13:54.642Z,2.40
2022-08-28T09:15:56.783Z,2.35
2022-08-28T09:18:14.402Z,2.22
2022-08-28T09:20:30.220Z,2.38
2022-08-28T09:22:35.973Z,2.42
2022-08-28T09:24:41.278Z,2.22
2022-08-28T09:26:50.461Z,2.30
2022-08-28T09:29:05.401Z,2.53
2022-08-28T09:31:20.162Z,2.55
2022-08-28T09:33:35.202Z,2.65
2022-08-28T09:35:37.962Z,2.83
2022-08-28T09:37:41.354Z,2.50
2022-08-28T09:39:48.144Z,2.40
2022-08-28T09:42:34.035Z,2.65
2022-08-28T09:45:09.808Z,2.03
2022-08-28T09:47:46.690Z,2.53
2022-08-28T09:49:49.106Z,2.72
2022-08-28T09:51:51.478Z,2.65
2022-08-28T09:54:10.520Z,2.10
2022-08-28T09:56:27.472Z,2.53
2022-08-28T09:58:42.774Z,2.40
2022-08-28T10:00:55.165Z,2.22
2022-08-28T10:03:18.057Z,2.40
2022-08-28T10:05:42.099Z,2.45
2022-08-28T10:08:05.629Z,2.13
2022-08-28T10:10:30.554Z,3.03
2022-08-28T10:15:20.412Z,2.40
2022-08-28T10:17:31.002Z,2.47
2022-08-28T10:19:50.277Z,2.38
2022-08-28T10:21:58.086Z,2.60
2022-08-28T10:24:08.953Z,2.53
2022-08-28T10:26:39.820Z,2.40
2022-08-28T10:28:57.100Z,2.70
2022-08-28T10:31:33.860Z,2.47
2022-08-28T10:34:12.701Z,2.35
2022-08-28T10:36:27.357Z,2.20
2022-08-28T10:38:41.936Z,2.22
2022-08-28T10:40:49.823Z,2.30
2022-08-28T10:43:02.083Z,2.30
2022-08-28T10:45:16.208Z,2.33
2022-08-28T10:47:21.636Z,2.50
2022-08-28T10:49:28.729Z,2.35
2022-08-28T10:51:50.097Z,2.70
2022-08-28T10:53:58.227Z,2.47
2022-08-28T10:56:04.108Z,2.67
2022-08-28T10:58:24.242Z,2.63
2022-08-28T11:00:28.755Z,2.40
2022-08-28T11:02:31.356Z,2.50
2022-08-28T11:04:34.526Z,2.42
2022-08-28T11:06:45.084Z,2.85
2022-08-28T11:08:54.094Z,2.53
2022-08-28T11:11:02.019Z,2.28
2022-08-28T11:13:06.752Z,2.40
2022-08-28T11:15:36.664Z,2.40
2022-08-28T11:17:43.436Z,2.28
2022-08-28T11:20:15.403Z,2.00
2022-08-28T11:22:47.048Z,2.67
2022-08-28T11:25:03.258Z,2.15
2022-08-28T11:27:36.302Z,2.45
2022-08-28T11:30:00.302Z,2.30
2022-08-28T11:32:35.242Z,2.33
2022-08-28T11:34:57.720Z,2.70
2022-08-28T11:37:01.463Z,2.30
2022-08-28T11:39:21.756Z,2.53
2022-08-28T11:41:28.203Z,2.50
2022-08-28T11:43:30.365Z,2.80
2022-08-28T11:45:47.429Z,2.53
2022-08-28T11:47:54.093Z,2.15
2022-08-28T11:50:13.199Z,2.40
2022-08-28T11:52:23.912Z,2.70
2022-08-28T11:54:59.166Z,2.50
2022-08-28T11:59:35.461Z,2.35
2022-08-28T12:01:37.897Z,2.25
2022-08-28T12:04:03.833Z,2.47
2022-08-28T12:06:11.343Z,2.60
2022-08-28T12:08:42.334Z,2.75
2022-08-28T12:10:46.453Z,2.13
2022-08-28T12:12:48.384Z,2.33
2022-08-28T12:14:56.211Z,3.33
2022-08-28T12:17:05.819Z,2.17
2022-08-28T12:19:08.044Z,2.65
2022-08-28T12:21:20.908Z,2.40
2022-08-28T12:23:37.336Z,2.22
2022-08-28T12:25:44.053Z,2.58
2022-08-28T12:27:48.493Z,2.30
2022-08-28T12:29:54.781Z,2.30
2022-08-28T12:32:20.267Z,2.63
2022-08-28T12:34:29.022Z,2.38
2022-08-28T12:36:31.012Z,3.22
2022-08-28T12:38:34.576Z,2.40
2022-08-28T12:40:51.589Z,2.08
2022-08-28T12:42:58.298Z,2.50
2022-08-28T12:45:03.726Z,2.20
2022-08-28T12:47:07.436Z,2.28
2022-08-28T12:49:28.534Z,2.25
2022-08-28T12:51:35.267Z,2.05
2022-08-28T12:53:46.025Z,2.10
2022-08-28T12:55:48.105Z,2.00
2022-08-28T12:57:50.432Z,2.20
2022-08-28T12:59:54.840Z,3.15
2022-08-28T13:02:06.523Z,2.05
2022-08-28T13:04:32.858Z,2.60
2022-08-28T13:06:38.816Z,2.00
2022-08-28T13:08:40.977Z,2.00
2022-08-28T13:10:49.699Z,2.25
2022-08-28T13:13:10.730Z,2.25
2022-08-28T13:15:13.030Z,2.00
2022-08-28T13:17:35.590Z,2.22
2022-08-28T13:19:38.733Z,1.75
2022-08-28T13:21:58.531Z,2.00
2022-08-28T13:24:23.811Z,1.90
2022-08-28T13:26:33.178Z,1.70
2022-08-28T13:28:40.997Z,1.98
2022-08-28T13:30:43.048Z,2.10
2022-08-28T13:32:59.585Z,1.85
2022-08-28T13:35:20.644Z,1.95
2022-08-28T13:37:47.989Z,1.88
2022-08-28T13:39:49.968Z,1.70
2022-08-28T13:42:00.584Z,2.30
2022-08-28T13:44:02.677Z,1.70
2022-08-28T13:46:04.766Z,1.73
2022-08-28T13:48:07.402Z,1.63
2022-08-28T13:50:09.581Z,2.10
2022-08-28T13:52:12.035Z,2.17
2022-08-28T13:54:14.962Z,1.88
2022-08-28T13:56:18.466Z,1.83
2022-08-28T13:58:24.120Z,2.35
2022-08-28T14:00:26.393Z,1.80
2022-08-28T14:02:47.441Z,2.10
2022-08-28T14:04:49.590Z,2.08
2022-08-28T14:06:52.390Z,1.98
2022-08-28T14:08:54.306Z,2.38
2022-08-28T14:10:56.228Z,2.10
2022-08-28T14:12:58.397Z,2.10
2022-08-28T14:15:02.797Z,2.30
2022-08-28T14:17:05.502Z,2.85
2022-08-28T14:19:07.809Z,2.67
2022-08-28T14:21:09.741Z,2.00
2022-08-28T14:23:11.825Z,2.47
2022-08-28T14:25:14.537Z,2.22
2022-08-28T14:27:16.678Z,2.40
2022-08-28T14:29:19.600Z,2.10
2022-08-28T14:31:21.556Z,2.20
2022-08-28T14:33:28.645Z,1.95
2022-08-28T14:35:40.808Z,1.90
2022-08-28T14:37:42.865Z,2.08
2022-08-28T14:39:44.745Z,2.00
2022-08-28T14:41:47.187Z,2.17
2022-08-28T14:43:49.709Z,2.08
2022-08-28T14:45:51.665Z,2.22
2022-08-28T14:47:53.634Z,2.17
2022-08-28T14:49:55.519Z,2.30
2022-08-28T14:51:57.598Z,2.30
2022-08-28T14:54:00.537Z,2.15
2022-08-28T14:56:02.729Z,2.28
2022-08-28T14:58:04.648Z,1.88
2022-08-28T15:00:07.299Z,1.90
2022-08-28T15:02:18.868Z,1.90
2022-08-28T15:04:23.610Z,2.67
2022-08-28T15:06:26.828Z,2.10
2022-08-28T15:08:29.889Z,2.03
2022-08-28T15:10:31.772Z,2.20
2022-08-28T15:12:33.682Z,2.20
2022-08-28T15:14:36.152Z,2.13
2022-08-28T15:16:45.178Z,2.25
2022-08-28T15:18:48.021Z,2.20
2022-08-28T15:20:49.892Z,2.20
2022-08-28T15:22:51.792Z,2.15
2022-08-28T15:24:53.754Z,1.92
2022-08-28T15:26:59.687Z,2.00
2022-08-28T15:31:24.781Z,2.20
2022-08-28T15:33:27.790Z,2.10
2022-08-28T15:35:29.750Z,2.50
2022-08-28T15:37:31.759Z,1.88
2022-08-28T15:39:52.127Z,2.17
2022-08-28T15:41:54.830Z,1.90
2022-08-28T15:44:02.321Z,2.20
2022-08-28T15:46:13.728Z,1.92
2022-08-28T15:48:16.054Z,2.00
2022-08-28T15:50:19.858Z,2.00
2022-08-28T15:54:25.372Z,2.00
2022-08-28T15:56:27.553Z,2.17
2022-08-28T15:58:29.890Z,2.45
2022-08-28T16:00:31.972Z,2.15
2022-08-28T16:02:34.470Z,2.08
2022-08-28T16:04:37.222Z,2.20
2022-08-28T16:06:39.458Z,2.20
2022-08-28T16:08:43.352Z,2.10
2022-08-28T16:10:49.939Z,1.80
2022-08-28T16:12:55.603Z,1.90
2022-08-28T16:14:59.744Z,2.25
2022-08-28T16:17:05.536Z,2.20
2022-08-28T16:19:12.659Z,2.30
2022-08-28T16:21:14.623Z,2.25
2022-08-28T16:23:17.508Z,2.03
2022-08-28T16:25:19.469Z,2.17
2022-08-28T16:27:21.732Z,2.40
2022-08-28T16:29:23.629Z,2.35
2022-08-28T16:31:25.952Z,2.25
2022-08-28T16:33:28.001Z,2.33
2022-08-28T16:35:30.114Z,2.08
2022-08-28T16:37:36.347Z,2.45
2022-08-28T16:39:42.116Z,2.40
2022-08-28T16:41:49.848Z,2.00
2022-08-28T16:43:53.553Z,2.35
2022-08-28T16:45:55.468Z,2.08
2022-08-28T16:47:57.477Z,2.30
2022-08-28T16:50:01.959Z,2.13
2022-08-28T16:52:04.043Z,1.90
2022-08-28T16:54:06.705Z,1.95
2022-08-28T16:56:14.996Z,2.20
2022-08-28T16:58:17.320Z,2.25
2022-08-28T17:00:20.039Z,2.10
2022-08-28T17:02:25.174Z,2.00
2022-08-28T17:04:28.604Z,2.00
2022-08-28T17:06:31.987Z,2.55
2022-08-28T17:08:33.901Z,2.07
2022-08-28T17:10:37.654Z,2.67
2022-08-28T17:12:40.725Z,1.90
2022-08-28T17:14:42.655Z,2.22
2022-08-28T17:16:44.544Z,1.80
2022-08-28T17:18:48.363Z,2.25
2022-08-28T17:21:12.702Z,2.47
2022-08-28T17:23:15.493Z,2.35
2022-08-28T17:25:17.782Z,2.30
2022-08-28T17:27:22.879Z,2.63
2022-08-28T17:29:25.470Z,2.28
2022-08-28T17:31:27.533Z,2.70
2022-08-28T17:33:29.660Z,3.10
2022-08-28T17:35:31.849Z,2.78
2022-08-28T17:37:44.782Z,2.55
2022-08-28T17:39:47.982Z,2.50
2022-08-28T17:41:49.998Z,2.27
2022-08-28T17:43:52.077Z,2.45
2022-08-28T17:45:54.007Z,2.75
2022-08-28T17:47:57.054Z,2.20
2022-08-28T17:50:02.689Z,2.55
2022-08-28T17:52:04.991Z,2.30
2022-08-28T17:54:06.902Z,2.63
2022-08-28T17:56:09.130Z,2.58
2022-08-28T17:58:11.861Z,2.20
2022-08-28T18:00:16.603Z,2.10
2022-08-28T18:02:19.274Z,2.05
2022-08-28T18:04:24.384Z,2.40
2022-08-28T18:06:26.860Z,2.30
2022-08-28T18:08:29.076Z,2.53
2022-08-28T18:10:35.170Z,2.20
2022-08-28T18:12:42.450Z,2.38
2022-08-28T18:14:44.417Z,2.50
2022-08-28T18:16:47.344Z,2.42
2022-08-28T18:18:49.372Z,2.70
2022-08-28T18:20:51.349Z,2.70
2022-08-28T18:24:57.489Z,2.92
2022-08-28T18:26:59.590Z,2.70
2022-08-28T18:29:02.139Z,3.53
2022-08-28T18:31:06.340Z,2.83
2022-08-28T18:33:08.970Z,3.13
2022-08-28T18:35:10.894Z,2.70
2022-08-28T18:37:12.828Z,2.78
2022-08-28T18:39:15.144Z,3.10
2022-08-28T18:41:34.531Z,2.75
2022-08-28T18:43:45.989Z,2.95
2022-08-28T18:45:48.953Z,2.80
2022-08-28T18:47:51.454Z,3.33
2022-08-28T18:49:53.339Z,3.20
2022-08-28T18:51:55.545Z,2.95
2022-08-28T18:53:57.711Z,3.47
2022-08-28T18:56:00.280Z,3.30
2022-08-28T18:58:06.484Z,3.03
2022-08-28T19:00:09.698Z,3.53
2022-08-28T19:02:11.918Z,3.50
2022-08-28T19:04:13.885Z,3.65
2022-08-28T19:06:16.072Z,3.55
2022-08-28T19:08:18.040Z,3.50
2022-08-28T19:10:32.672Z,3.35
2022-08-28T19:12:36.694Z,3.45
2022-08-28T19:14:40.494Z,3.60
2022-08-28T19:16:42.352Z,3.47
2022-08-28T19:18:45.766Z,3.80
2022-08-28T19:20:51.667Z,3.50
2022-08-28T19:22:53.936Z,3.30
2022-08-28T19:24:55.824Z,3.40
2022-08-28T19:26:57.710Z,3.47
2022-08-28T19:29:00.756Z,3.13
2022-08-28T19:31:04.315Z,3.53
2022-08-28T19:33:06.270Z,3.30
2022-08-28T19:35:09.266Z,3.38
2022-08-28T19:37:11.152Z,3.33
2022-08-28T19:39:13.109Z,3.70
2022-08-28T19:41:15.158Z,3.40
2022-08-28T19:43:17.668Z,3.70
2022-08-28T19:45:19.921Z,3.90
2022-08-28T19:47:22.050Z,3.67
2022-08-28T19:49:24.081Z,3.60
2022-08-28T19:51:26.060Z,3.80
2022-08-28T19:53:27.978Z,3.70
2022-08-28T19:55:30.051Z,3.28
2022-08-28T19:57:32.564Z,3.80
2022-08-28T19:59:35.396Z,3.72
2022-08-28T20:01:40.841Z,3.92
2022-08-28T20:03:42.829Z,3.67
2022-08-28T20:05:44.777Z,3.08
2022-08-28T20:07:46.817Z,3.63
2022-08-28T20:09:48.703Z,3.78
2022-08-28T20:11:50.807Z,3.55
2022-08-28T20:13:55.625Z,3.38
2022-08-28T20:15:58.368Z,3.38
2022-08-28T20:18:00.311Z,3.53
2022-08-28T20:20:03.592Z,3.08
2022-08-28T20:22:05.583Z,3.40
2022-08-28T20:24:10.323Z,3.25
2022-08-28T20:26:13.319Z,3.10
2022-08-28T20:28:16.701Z,3.20
2022-08-28T20:30:18.708Z,4.03
2022-08-28T20:32:20.652Z,3.38
2022-08-28T20:34:23.034Z,3.78
2022-08-28T20:36:26.300Z,3.03
2022-08-28T20:38:28.170Z,3.60
2022-08-28T20:40:30.479Z,3.30
2022-08-28T20:42:32.364Z,3.22
2022-08-28T20:44:34.418Z,3.15
2022-08-28T20:46:40.790Z,2.95
2022-08-28T20:48:44.589Z,3.60
2022-08-28T20:50:46.457Z,3.70
2022-08-28T20:52:48.332Z,3.35
2022-08-28T20:54:50.204Z,3.40
2022-08-28T20:56:52.317Z,3.47
2022-08-28T20:58:54.283Z,3.33
2022-08-28T21:00:57.236Z,3.08
2022-08-28T21:03:01.718Z,3.65
2022-08-28T21:05:04.541Z,3.03
2022-08-28T21:07:06.565Z,3.30
2022-08-28T21:09:08.537Z,3.08
2022-08-28T21:11:11.149Z,3.47
2022-08-28T21:13:14.969Z,3.20
2022-08-28T21:15:16.890Z,3.35
2022-08-28T21:17:25.610Z,3.63
2022-08-28T21:19:35.246Z,3.10
2022-08-28T21:21:42.505Z,3.25
2022-08-28T21:23:44.418Z,2.90
2022-08-28T21:25:46.362Z,3.25
2022-08-28T21:27:48.312Z,3.17
2022-08-28T21:29:50.188Z,3.33
2022-08-28T21:31:52.963Z,3.38
2022-08-28T21:33:54.882Z,3.22
2022-08-28T21:35:56.805Z,3.42
2022-08-28T21:37:58.798Z,3.08
2022-08-28T21:40:01.140Z,2.97
2022-08-28T21:42:03.358Z,3.33
2022-08-28T21:44:06.115Z,3.05
2022-08-28T21:46:08.945Z,2.80
2022-08-28T21:48:11.002Z,3.10
2022-08-28T21:50:13.247Z,3.10
2022-08-28T21:52:15.128Z,3.33
2022-08-28T21:54:18.250Z,3.38
2022-08-28T21:56:23.977Z,3.00
2022-08-28T21:58:25.922Z,3.30
2022-08-28T22:00:27.830Z,2.85
2022-08-28T22:02:33.441Z,3.40
2022-08-28T22:04:35.706Z,3.10
2022-08-28T22:06:37.792Z,2.92
2022-08-28T22:08:40.856Z,2.92
2022-08-28T22:10:43.975Z,3.22
2022-08-28T22:12:45.962Z,3.08
2022-08-28T22:14:47.995Z,3.13
2022-08-28T22:16:49.979Z,3.22
2022-08-28T22:18:52.739Z,3.55
2022-08-28T22:21:13.460Z,3.10
2022-08-28T22:23:17.579Z,2.88
2022-08-28T22:27:21.400Z,3.10
2022-08-28T22:29:23.391Z,2.95
2022-08-28T22:31:25.741Z,3.00
2022-08-28T22:33:28.186Z,2.88
2022-08-28T22:35:30.107Z,3.40
2022-08-28T22:37:32.305Z,2.85
2022-08-28T22:39:34.289Z,3.72
2022-08-28T22:41:37.544Z,3.10
2022-08-28T22:43:39.917Z,3.17
2022-08-28T22:45:43.627Z,3.42
2022-08-28T22:47:45.846Z,3.05
2022-08-28T22:49:47.839Z,3.13
2022-08-28T22:51:49.895Z,3.28
2022-08-28T22:53:52.497Z,3.63
2022-08-28T22:55:54.387Z,2.78
2022-08-28T22:57:56.422Z,3.15
2022-08-28T23:00:01.469Z,2.72
2022-08-28T23:02:04.203Z,3.03
2022-08-28T23:04:06.151Z,2.72
2022-08-28T23:06:08.280Z,3.50
2022-08-28T23:08:10.169Z,3.58
2022-08-28T23:10:13.134Z,3.40
2022-08-28T23:12:15.014Z,3.10
2022-08-28T23:14:17.247Z,3.28
2022-08-28T23:16:23.989Z,2.80
2022-08-28T23:18:26.507Z,3.15
2022-08-28T23:20:30.456Z,3.28
2022-08-28T23:22:32.389Z,2.97
2022-08-28T23:24:37.308Z,2.70
2022-08-28T23:26:39.372Z,3.75
2022-08-28T23:28:42.184Z,2.90
2022-08-28T23:30:48.489Z,3.40
2022-08-28T23:32:52.898Z,3.53
2022-08-28T23:34:54.755Z,3.33
2022-08-28T23:36:57.090Z,4.07
2022-08-28T23:39:00.545Z,2.92
2022-08-28T23:41:03.165Z,3.45
2022-08-28T23:43:05.154Z,2.97
2022-08-28T23:45:08.358Z,3.33
2022-08-28T23:47:10.328Z,3.27
2022-08-28T23:49:13.228Z,3.70
2022-08-28T23:51:15.496Z,3.42
2022-08-28T23:53:18.149Z,2.88
2022-08-28T23:55:20.914Z,3.10
2022-08-28T23:57:22.908Z,3.00
2022-08-28T23:59:25.905Z,3.40
